createdAt,value
2017-12-30T00:01:26.230Z,-4.97
2017-12-30T00:03:53.810Z,-4.86
2017-12-30T00:06:21.870Z,-4.80
2017-12-30T00:08:49.457Z,-4.78
2017-12-30T00:11:17.037Z,-4.66
2017-12-30T00:13:44.657Z,-4.65
2017-12-30T00:16:12.210Z,-4.65
2017-12-30T00:18:39.805Z,-4.52
2017-12-30T00:21:07.510Z,-4.43
2017-12-30T00:23:35.068Z,-4.45
2017-12-30T00:26:02.669Z,-4.37
2017-12-30T00:28:30.303Z,-4.29
2017-12-30T00:30:57.859Z,-4.29
2017-12-30T00:33:25.459Z,-4.40
2017-12-30T00:35:53.103Z,-4.28
2017-12-30T00:38:20.648Z,-4.23
2017-12-30T00:40:48.197Z,-4.22
2017-12-30T00:43:15.845Z,-4.17
2017-12-30T00:45:43.413Z,-4.16
2017-12-30T00:48:11.006Z,-4.18
2017-12-30T00:50:38.672Z,-4.16
2017-12-30T00:53:06.587Z,-4.00
2017-12-30T00:55:34.159Z,-4.00
2017-12-30T00:58:01.787Z,-4.00
2017-12-30T01:00:29.386Z,-3.92
2017-12-30T01:02:56.945Z,-3.93
2017-12-30T01:05:24.546Z,-3.84
2017-12-30T01:07:52.110Z,-3.69
2017-12-30T01:10:19.688Z,-3.62
2017-12-30T01:12:47.257Z,-3.56
2017-12-30T01:15:14.810Z,-3.54
2017-12-30T01:17:42.374Z,-3.49
2017-12-30T01:20:09.986Z,-3.45
2017-12-30T01:22:37.647Z,-3.44
2017-12-30T01:25:05.446Z,-3.37
2017-12-30T01:27:33.005Z,-3.31
2017-12-30T01:30:00.581Z,-3.18
2017-12-30T01:32:28.124Z,-3.07
2017-12-30T01:34:55.719Z,-2.91
2017-12-30T01:37:23.277Z,-2.80
2017-12-30T01:39:50.849Z,-2.72
2017-12-30T01:42:18.450Z,-2.62
2017-12-30T01:44:46.036Z,-2.55
2017-12-30T01:47:13.597Z,-2.51
2017-12-30T01:49:41.196Z,-2.47
2017-12-30T01:52:08.753Z,-2.48
2017-12-30T01:54:36.294Z,-2.45
2017-12-30T01:57:03.910Z,-2.47
2017-12-30T01:59:31.487Z,-2.49
2017-12-30T02:01:59.083Z,-2.46
2017-12-30T02:04:26.665Z,-2.47
2017-12-30T02:06:54.201Z,-2.47
2017-12-30T02:09:21.817Z,-2.48
2017-12-30T02:11:49.395Z,-2.51
2017-12-30T02:14:17.010Z,-2.57
2017-12-30T02:16:44.598Z,-2.65
2017-12-30T02:19:12.304Z,-2.74
2017-12-30T02:21:39.929Z,-2.78
2017-12-30T02:24:07.543Z,-2.83
2017-12-30T02:26:35.070Z,-2.88
2017-12-30T02:29:02.634Z,-2.89
2017-12-30T02:31:30.250Z,-2.95
2017-12-30T02:33:57.789Z,-3.01
2017-12-30T02:36:25.327Z,-3.01
2017-12-30T02:38:52.937Z,-3.01
2017-12-30T02:41:20.643Z,-2.95
2017-12-30T02:43:48.184Z,-3.06
2017-12-30T02:46:16.665Z,-3.07
2017-12-30T02:48:44.224Z,-3.07
2017-12-30T02:51:11.794Z,-3.10
2017-12-30T02:53:39.397Z,-3.07
2017-12-30T02:56:07.492Z,-3.05
2017-12-30T02:58:35.493Z,-3.06
2017-12-30T03:01:03.477Z,-3.06
2017-12-30T03:03:31.969Z,-3.02
2017-12-30T03:05:59.528Z,-2.96
2017-12-30T03:08:27.178Z,-2.95
2017-12-30T03:10:54.768Z,-2.88
2017-12-30T03:13:22.370Z,-2.85
2017-12-30T03:15:49.957Z,-2.84
2017-12-30T03:18:17.580Z,-2.81
2017-12-30T03:20:45.180Z,-2.80
2017-12-30T03:23:12.928Z,-2.82
2017-12-30T03:25:40.580Z,-2.79
2017-12-30T03:28:08.140Z,-2.79
2017-12-30T03:30:35.707Z,-2.80
2017-12-30T03:33:03.372Z,-2.78
2017-12-30T03:35:30.935Z,-2.76
2017-12-30T03:37:58.499Z,-2.70
2017-12-30T03:40:26.135Z,-2.72
2017-12-30T03:42:53.684Z,-2.74
2017-12-30T03:45:21.220Z,-2.80
2017-12-30T03:47:48.822Z,-2.82
2017-12-30T03:50:16.413Z,-2.86
2017-12-30T03:52:43.978Z,-2.90
2017-12-30T03:55:11.771Z,-2.89
2017-12-30T03:57:39.370Z,-2.82
2017-12-30T04:00:06.961Z,-2.61
2017-12-30T04:02:34.552Z,-2.39
2017-12-30T04:05:02.117Z,-2.18
2017-12-30T04:07:29.884Z,-2.08
2017-12-30T04:09:57.500Z,-2.15
2017-12-30T04:12:25.078Z,-2.13
2017-12-30T04:14:52.652Z,-2.10
2017-12-30T04:17:20.274Z,-2.08
2017-12-30T04:19:47.851Z,-2.05
2017-12-30T04:22:15.522Z,-2.06
2017-12-30T04:24:43.128Z,-1.93
2017-12-30T04:27:10.842Z,-1.99
2017-12-30T04:29:38.400Z,-2.13
2017-12-30T04:32:06.040Z,-2.25
2017-12-30T04:34:33.634Z,-2.30
2017-12-30T04:37:01.211Z,-2.34
2017-12-30T04:42:00.586Z,-2.31
2017-12-30T04:44:28.159Z,-2.24
2017-12-30T04:46:55.798Z,-2.15
2017-12-30T04:49:23.758Z,-2.06
2017-12-30T04:51:51.356Z,-1.89
2017-12-30T04:54:18.989Z,-1.84
2017-12-30T04:56:46.552Z,-1.73
2017-12-30T04:59:14.106Z,-1.71
2017-12-30T05:01:41.733Z,-1.70
2017-12-30T05:04:09.296Z,-1.68
2017-12-30T05:06:36.851Z,-1.78
2017-12-30T05:09:04.900Z,-1.96
2017-12-30T05:11:32.472Z,-2.03
2017-12-30T05:14:00.029Z,-2.11
2017-12-30T05:16:27.598Z,-2.09
2017-12-30T05:18:55.142Z,-2.08
2017-12-30T05:21:22.721Z,-1.95
2017-12-30T05:23:50.357Z,-2.01
2017-12-30T05:26:17.917Z,-2.00
2017-12-30T05:28:45.468Z,-2.07
2017-12-30T05:31:13.059Z,-2.15
2017-12-30T05:33:40.641Z,-2.16
2017-12-30T05:36:08.319Z,-2.11
2017-12-30T05:38:35.917Z,-2.02
2017-12-30T05:41:03.499Z,-1.88
2017-12-30T05:43:31.504Z,-1.75
2017-12-30T05:45:59.206Z,-1.66
2017-12-30T05:48:32.662Z,-1.66
2017-12-30T05:51:00.289Z,-1.61
2017-12-30T05:53:27.850Z,-1.71
2017-12-30T05:55:55.411Z,-1.58
2017-12-30T05:58:22.992Z,-1.64
2017-12-30T06:00:50.568Z,-1.69
2017-12-30T06:03:18.153Z,-1.62
2017-12-30T06:05:45.745Z,-1.69
2017-12-30T06:08:13.348Z,-1.56
2017-12-30T06:10:40.921Z,-1.43
2017-12-30T06:13:08.819Z,-1.30
2017-12-30T06:15:36.420Z,-1.32
2017-12-30T06:18:04.069Z,-1.44
2017-12-30T06:20:31.683Z,-1.47
2017-12-30T06:22:59.264Z,-1.51
2017-12-30T06:25:26.970Z,-1.57
2017-12-30T06:27:54.561Z,-1.49
2017-12-30T06:30:22.127Z,-1.33
2017-12-30T06:32:49.700Z,-1.30
2017-12-30T06:35:17.293Z,-1.29
2017-12-30T06:37:44.862Z,-1.17
2017-12-30T06:40:12.530Z,-1.05
2017-12-30T06:45:31.015Z,-0.73
2017-12-30T06:47:58.620Z,-0.24
2017-12-30T06:50:26.193Z,-0.07
2017-12-30T06:52:53.771Z,0.02
2017-12-30T06:55:21.513Z,0.17
2017-12-30T07:00:39.760Z,0.27
2017-12-30T07:03:09.786Z,0.40
2017-12-30T07:05:37.349Z,0.48
2017-12-30T07:10:55.677Z,0.56
2017-12-30T07:13:29.237Z,0.56
2017-12-30T07:15:56.954Z,0.62
2017-12-30T07:18:24.612Z,0.58
2017-12-30T07:20:52.913Z,0.59
2017-12-30T07:23:20.492Z,0.63
2017-12-30T07:25:48.051Z,0.70
2017-12-30T07:28:15.592Z,0.73
2017-12-30T07:30:43.213Z,0.74
2017-12-30T07:33:12.991Z,0.73
2017-12-30T07:35:40.839Z,0.75
2017-12-30T07:38:08.399Z,0.82
2017-12-30T07:40:35.971Z,0.83
2017-12-30T07:43:05.011Z,0.84
2017-12-30T07:45:32.749Z,0.88
2017-12-30T07:48:01.312Z,0.90
2017-12-30T07:50:28.887Z,0.90
2017-12-30T07:52:56.457Z,0.81
2017-12-30T07:55:24.029Z,0.83
2017-12-30T07:57:51.597Z,0.83
2017-12-30T08:00:19.155Z,0.81
2017-12-30T08:02:46.730Z,0.88
2017-12-30T08:05:14.296Z,0.84
2017-12-30T08:07:41.870Z,0.90
2017-12-30T08:10:09.484Z,0.92
2017-12-30T08:12:37.044Z,0.86
2017-12-30T08:15:04.631Z,0.96
2017-12-30T08:17:32.271Z,0.98
2017-12-30T08:19:59.846Z,1.02
2017-12-30T08:22:27.691Z,1.12
2017-12-30T08:24:55.351Z,1.20
2017-12-30T08:27:22.886Z,1.25
2017-12-30T08:29:50.451Z,1.39
2017-12-30T08:32:18.074Z,1.47
2017-12-30T08:34:45.613Z,1.60
2017-12-30T08:37:13.160Z,1.72
2017-12-30T08:39:40.773Z,1.73
2017-12-30T08:42:08.510Z,1.75
2017-12-30T08:44:36.146Z,1.81
2017-12-30T08:47:03.747Z,1.83
2017-12-30T08:49:31.879Z,1.89
2017-12-30T08:51:59.740Z,2.06
2017-12-30T08:54:27.325Z,2.09
2017-12-30T08:56:54.920Z,2.27
2017-12-30T08:59:22.520Z,2.51
2017-12-30T09:01:50.079Z,2.67
2017-12-30T09:04:17.640Z,2.78
2017-12-30T09:06:45.256Z,2.98
2017-12-30T09:09:12.799Z,3.17
2017-12-30T09:11:40.358Z,3.27
2017-12-30T09:14:07.962Z,3.43
2017-12-30T09:16:35.563Z,3.53
2017-12-30T09:19:03.137Z,3.65
2017-12-30T09:21:30.684Z,3.69
2017-12-30T09:23:58.253Z,3.77
2017-12-30T09:26:25.800Z,3.36
2017-12-30T09:28:53.361Z,3.31
2017-12-30T09:31:20.961Z,3.05
2017-12-30T09:33:48.520Z,3.05
2017-12-30T09:36:16.037Z,3.28
2017-12-30T09:38:43.611Z,3.23
2017-12-30T09:41:11.165Z,3.31
2017-12-30T09:43:38.719Z,3.37
2017-12-30T09:46:06.266Z,3.37
2017-12-30T09:48:33.863Z,3.48
2017-12-30T09:51:01.463Z,3.37
2017-12-30T09:53:29.027Z,3.32
2017-12-30T09:55:56.611Z,3.46
2017-12-30T09:58:24.160Z,3.52
2017-12-30T10:00:51.706Z,3.81
2017-12-30T10:03:19.266Z,3.90
2017-12-30T10:05:46.824Z,4.06
2017-12-30T10:08:14.396Z,4.08
2017-12-30T10:10:41.927Z,4.43
2017-12-30T10:13:09.559Z,4.40
2017-12-30T10:15:37.130Z,3.96
2017-12-30T10:18:05.080Z,4.15
2017-12-30T10:20:32.671Z,4.19
2017-12-30T10:23:00.241Z,4.47
2017-12-30T10:25:27.790Z,4.73
2017-12-30T10:27:55.340Z,4.91
2017-12-30T10:30:23.004Z,5.25
2017-12-30T10:32:50.570Z,5.08
2017-12-30T10:35:18.187Z,4.77
2017-12-30T10:37:45.741Z,4.76
2017-12-30T10:40:13.299Z,4.71
2017-12-30T10:42:40.873Z,5.06
2017-12-30T10:45:08.431Z,5.42
2017-12-30T10:47:36.072Z,5.59
2017-12-30T10:50:03.640Z,5.75
2017-12-30T10:52:31.181Z,5.71
2017-12-30T10:54:58.769Z,5.81
2017-12-30T10:57:26.363Z,5.68
2017-12-30T10:59:54.044Z,5.48
2017-12-30T11:02:21.589Z,5.33
2017-12-30T11:04:49.294Z,5.24
2017-12-30T11:07:16.855Z,5.28
2017-12-30T11:09:44.413Z,5.35
2017-12-30T11:12:11.970Z,5.39
2017-12-30T11:14:40.769Z,5.56
2017-12-30T11:17:08.315Z,5.42
2017-12-30T11:19:35.867Z,5.47
2017-12-30T11:22:03.466Z,5.49
2017-12-30T11:24:31.023Z,5.40
2017-12-30T11:26:59.322Z,5.59
2017-12-30T11:29:26.866Z,5.17
2017-12-30T11:31:54.417Z,5.44
2017-12-30T11:34:21.975Z,5.64
2017-12-30T11:36:49.558Z,5.61
2017-12-30T11:39:17.141Z,5.19
2017-12-30T11:41:44.764Z,5.28
2017-12-30T11:44:12.362Z,5.41
2017-12-30T11:46:40.040Z,5.45
2017-12-30T11:49:07.694Z,5.41
2017-12-30T11:51:35.378Z,5.31
2017-12-30T11:54:05.195Z,5.19
2017-12-30T11:56:32.926Z,4.98
2017-12-30T11:59:00.457Z,4.79
2017-12-30T12:01:28.009Z,4.90
2017-12-30T12:03:55.613Z,4.86
2017-12-30T12:06:24.005Z,5.02
2017-12-30T12:08:51.560Z,5.24
2017-12-30T12:11:19.162Z,5.32
2017-12-30T12:13:46.717Z,5.26
2017-12-30T12:16:14.254Z,5.19
2017-12-30T12:18:41.852Z,5.21
2017-12-30T12:21:09.582Z,4.99
2017-12-30T12:23:37.174Z,5.07
2017-12-30T12:26:04.757Z,5.17
2017-12-30T12:28:32.321Z,5.11
2017-12-30T12:30:59.864Z,4.80
2017-12-30T12:33:27.443Z,4.85
2017-12-30T12:35:55.018Z,4.87
2017-12-30T12:38:22.581Z,4.82
2017-12-30T12:40:50.145Z,4.66
2017-12-30T12:43:17.707Z,4.87
2017-12-30T12:45:45.259Z,5.00
2017-12-30T12:48:12.843Z,5.12
2017-12-30T12:50:40.428Z,5.24
2017-12-30T12:53:08.151Z,5.29
2017-12-30T12:55:35.846Z,5.08
2017-12-30T12:58:03.409Z,4.88
2017-12-30T13:00:31.025Z,4.39
2017-12-30T13:02:58.586Z,4.28
2017-12-30T13:05:26.141Z,4.14
2017-12-30T13:07:53.746Z,3.97
2017-12-30T13:10:21.321Z,4.10
2017-12-30T13:12:48.923Z,4.21
2017-12-30T13:15:16.509Z,4.35
2017-12-30T13:17:44.064Z,4.65
2017-12-30T13:20:11.759Z,4.56
2017-12-30T13:22:39.305Z,4.80
2017-12-30T13:25:06.842Z,4.98
2017-12-30T13:27:34.381Z,5.02
2017-12-30T13:30:02.011Z,4.79
2017-12-30T13:32:29.621Z,4.84
2017-12-30T13:34:57.192Z,4.92
2017-12-30T13:37:24.729Z,4.60
2017-12-30T13:39:52.293Z,4.23
2017-12-30T13:42:19.971Z,4.03
2017-12-30T13:44:47.518Z,3.79
2017-12-30T13:47:15.328Z,3.53
2017-12-30T13:49:42.889Z,3.49
2017-12-30T13:52:10.460Z,3.43
2017-12-30T13:54:38.037Z,3.32
2017-12-30T13:57:05.597Z,3.24
2017-12-30T13:59:33.138Z,3.09
2017-12-30T14:02:00.701Z,3.04
2017-12-30T14:04:28.259Z,3.22
2017-12-30T14:06:55.801Z,3.28
2017-12-30T14:09:23.478Z,3.02
2017-12-30T14:11:51.012Z,2.80
2017-12-30T14:14:18.821Z,2.71
2017-12-30T14:16:46.382Z,2.82
2017-12-30T14:19:13.939Z,3.08
2017-12-30T14:21:41.551Z,3.07
2017-12-30T14:24:09.102Z,2.76
2017-12-30T14:26:36.681Z,2.78
2017-12-30T14:29:04.272Z,2.86
2017-12-30T14:31:33.425Z,3.08
2017-12-30T14:34:00.980Z,3.07
2017-12-30T14:36:28.538Z,3.05
2017-12-30T14:38:56.130Z,2.93
2017-12-30T14:41:23.667Z,2.74
2017-12-30T14:43:51.192Z,2.63
2017-12-30T14:46:18.787Z,2.52
2017-12-30T14:48:46.356Z,2.38
2017-12-30T14:51:13.920Z,2.29
2017-12-30T14:56:32.276Z,2.23
2017-12-30T14:58:59.880Z,2.14
2017-12-30T15:01:27.424Z,2.11
2017-12-30T15:03:55.024Z,2.03
2017-12-30T15:06:22.657Z,2.02
2017-12-30T15:08:50.206Z,1.98
2017-12-30T15:11:17.754Z,1.92
2017-12-30T15:13:45.335Z,1.81
2017-12-30T15:16:12.883Z,1.75
2017-12-30T15:18:40.499Z,1.85
2017-12-30T15:21:08.225Z,1.68
2017-12-30T15:23:35.788Z,1.58
2017-12-30T15:26:04.718Z,1.47
2017-12-30T15:28:32.269Z,1.49
2017-12-30T15:31:00.928Z,1.65
2017-12-30T15:33:28.574Z,1.58
2017-12-30T15:35:57.720Z,1.57
2017-12-30T15:38:25.295Z,1.63
2017-12-30T15:40:52.905Z,1.62
2017-12-30T15:43:20.445Z,1.60
2017-12-30T15:45:47.988Z,1.58
2017-12-30T15:48:15.602Z,1.61
2017-12-30T15:50:43.145Z,1.56
2017-12-30T15:53:10.711Z,1.52
2017-12-30T15:55:38.348Z,1.56
2017-12-30T15:58:05.883Z,1.56
2017-12-30T16:00:33.459Z,1.50
2017-12-30T16:03:01.064Z,1.64
2017-12-30T16:05:28.611Z,1.57
2017-12-30T16:07:56.204Z,1.49
2017-12-30T16:10:23.785Z,1.44
2017-12-30T16:12:51.329Z,1.43
2017-12-30T16:15:18.897Z,1.35
2017-12-30T16:17:46.492Z,1.39
2017-12-30T16:20:14.156Z,1.36
2017-12-30T16:22:41.751Z,1.35
2017-12-30T16:25:09.647Z,1.32
2017-12-30T16:27:37.211Z,1.32
2017-12-30T16:30:04.749Z,1.28
2017-12-30T16:32:32.360Z,1.36
2017-12-30T16:34:59.951Z,1.39
2017-12-30T16:37:27.522Z,1.38
2017-12-30T16:39:56.692Z,1.45
2017-12-30T16:42:24.326Z,1.49
2017-12-30T16:44:51.920Z,1.48
2017-12-30T16:47:19.482Z,1.52
2017-12-30T16:49:47.054Z,1.49
2017-12-30T16:52:14.625Z,1.52
2017-12-30T16:54:42.176Z,1.52
2017-12-30T16:57:10.003Z,1.47
2017-12-30T16:59:37.700Z,1.44
2017-12-30T17:02:05.232Z,1.43
2017-12-30T17:04:32.782Z,1.41
2017-12-30T17:07:00.561Z,1.40
2017-12-30T17:09:28.109Z,1.40
2017-12-30T17:11:55.654Z,1.43
2017-12-30T17:14:23.328Z,1.52
2017-12-30T17:16:50.881Z,1.60
2017-12-30T17:19:18.435Z,1.56
2017-12-30T17:21:46.030Z,1.64
2017-12-30T17:24:13.709Z,1.68
2017-12-30T17:26:41.245Z,1.73
2017-12-30T17:29:09.209Z,1.73
2017-12-30T17:31:36.851Z,1.73
2017-12-30T17:34:04.381Z,1.72
2017-12-30T17:36:31.994Z,1.69
2017-12-30T17:38:59.558Z,1.71
2017-12-30T17:41:27.138Z,1.64
2017-12-30T17:43:54.709Z,1.60
2017-12-30T17:46:22.298Z,1.60
2017-12-30T17:48:49.871Z,1.55
2017-12-30T17:51:17.435Z,1.50
2017-12-30T17:53:45.006Z,1.50
2017-12-30T17:56:12.665Z,1.50
2017-12-30T17:58:40.229Z,1.49
2017-12-30T18:01:07.784Z,1.51
2017-12-30T18:03:35.327Z,1.60
2017-12-30T18:06:17.587Z,1.62
2017-12-30T18:08:45.144Z,1.64
2017-12-30T18:11:12.673Z,1.58
2017-12-30T18:13:40.239Z,1.54
2017-12-30T18:16:07.771Z,1.54
2017-12-30T18:18:35.337Z,1.54
2017-12-30T18:21:02.879Z,1.57
2017-12-30T18:23:31.057Z,1.66
2017-12-30T18:25:58.601Z,1.71
2017-12-30T18:28:26.159Z,1.70
2017-12-30T18:30:53.736Z,1.67
2017-12-30T18:33:21.283Z,1.62
2017-12-30T18:35:48.805Z,1.64
2017-12-30T18:38:16.347Z,1.57
2017-12-30T18:40:43.884Z,1.66
2017-12-30T18:43:11.610Z,1.65
2017-12-30T18:45:39.143Z,1.73
2017-12-30T18:48:06.680Z,1.77
2017-12-30T18:50:34.232Z,1.77
2017-12-30T18:53:01.780Z,1.79
2017-12-30T18:55:29.437Z,1.87
2017-12-30T18:57:57.029Z,1.94
2017-12-30T19:00:24.584Z,1.92
2017-12-30T19:02:52.140Z,1.96
2017-12-30T19:05:19.953Z,2.03
2017-12-30T19:07:47.879Z,2.06
2017-12-30T19:10:15.478Z,2.15
2017-12-30T19:12:43.455Z,2.21
2017-12-30T19:15:11.047Z,2.24
2017-12-30T19:17:38.600Z,2.37
2017-12-30T19:20:06.188Z,2.49
2017-12-30T19:22:33.741Z,2.47
2017-12-30T19:25:02.010Z,2.50
2017-12-30T19:27:29.587Z,2.53
2017-12-30T19:29:57.137Z,2.50
2017-12-30T19:32:24.688Z,2.61
2017-12-30T19:34:52.282Z,2.60
2017-12-30T19:37:19.831Z,2.63
2017-12-30T19:39:47.402Z,2.66
2017-12-30T19:42:14.991Z,2.58
2017-12-30T19:44:43.237Z,2.41
2017-12-30T19:47:10.794Z,2.43
2017-12-30T19:49:38.357Z,2.42
2017-12-30T19:52:05.909Z,2.50
2017-12-30T19:54:33.513Z,2.67
2017-12-30T19:57:01.009Z,2.78
2017-12-30T19:59:28.563Z,2.56
2017-12-30T20:04:30.442Z,2.48
2017-12-30T20:06:58.015Z,2.43
2017-12-30T20:09:25.562Z,2.46
2017-12-30T20:11:53.120Z,2.35
2017-12-30T20:14:20.722Z,2.31
2017-12-30T20:16:48.267Z,2.27
2017-12-30T20:19:15.801Z,2.25
2017-12-30T20:21:43.393Z,2.35
2017-12-30T20:24:10.937Z,2.53
2017-12-30T20:26:38.495Z,2.62
2017-12-30T20:29:06.106Z,2.54
2017-12-30T20:31:33.665Z,2.46
2017-12-30T20:34:01.207Z,2.34
2017-12-30T20:36:28.828Z,2.25
2017-12-30T20:38:56.385Z,2.21
2017-12-30T20:41:23.932Z,2.15
2017-12-30T20:43:51.506Z,2.10
2017-12-30T20:46:19.043Z,2.16
2017-12-30T20:48:46.588Z,2.07
2017-12-30T20:51:14.136Z,2.19
2017-12-30T20:53:41.705Z,2.15
2017-12-30T20:56:09.251Z,2.22
2017-12-30T20:58:36.803Z,2.25
2017-12-30T21:01:04.378Z,2.26
2017-12-30T21:03:31.936Z,2.08
2017-12-30T21:05:59.489Z,2.20
2017-12-30T21:08:27.083Z,2.21
2017-12-30T21:10:54.628Z,2.21
2017-12-30T21:13:22.187Z,2.31
2017-12-30T21:15:49.739Z,2.24
2017-12-30T21:18:17.429Z,2.15
2017-12-30T21:20:44.977Z,2.26
2017-12-30T21:23:12.539Z,2.15
2017-12-30T21:25:40.281Z,2.21
2017-12-30T21:28:07.915Z,2.09
2017-12-30T21:30:35.468Z,2.21
2017-12-30T21:33:03.018Z,2.23
2017-12-30T21:35:31.608Z,2.25
2017-12-30T21:37:59.161Z,2.20
2017-12-30T21:40:26.756Z,2.18
2017-12-30T21:42:54.313Z,2.25
2017-12-30T21:45:21.894Z,2.27
2017-12-30T21:50:46.448Z,2.26
2017-12-30T21:53:13.989Z,2.28
2017-12-30T21:55:41.775Z,2.32
2017-12-30T21:58:09.354Z,2.34
2017-12-30T22:00:36.889Z,2.49
2017-12-30T22:03:04.506Z,2.43
2017-12-30T22:05:32.076Z,2.49
2017-12-30T22:07:59.620Z,2.43
2017-12-30T22:10:27.146Z,2.55
2017-12-30T22:12:54.725Z,2.86
2017-12-30T22:15:22.285Z,3.07
2017-12-30T22:17:49.825Z,3.53
2017-12-30T22:20:17.465Z,4.44
2017-12-30T22:22:45.012Z,4.77
2017-12-30T22:25:12.563Z,5.28
2017-12-30T22:27:40.140Z,5.51
2017-12-30T22:30:07.753Z,5.77
2017-12-30T22:32:35.293Z,5.64
2017-12-30T22:35:02.888Z,5.47
2017-12-30T22:37:30.460Z,5.51
2017-12-30T22:40:10.047Z,5.60
2017-12-30T22:42:37.684Z,5.90
2017-12-30T22:45:05.924Z,5.93
2017-12-30T22:47:33.489Z,5.71
2017-12-30T22:50:01.046Z,5.97
2017-12-30T22:52:28.647Z,6.10
2017-12-30T22:54:56.232Z,5.99
2017-12-30T22:57:23.768Z,5.97
2017-12-30T22:59:51.361Z,6.34
2017-12-30T23:02:18.981Z,6.30
2017-12-30T23:04:48.124Z,5.92
2017-12-30T23:07:15.894Z,6.25
2017-12-30T23:09:43.458Z,6.22
2017-12-30T23:12:11.024Z,6.23
2017-12-30T23:14:38.577Z,6.02
2017-12-30T23:17:06.361Z,6.15
2017-12-30T23:19:33.984Z,6.43
2017-12-30T23:22:01.542Z,6.08
2017-12-30T23:24:29.103Z,6.04
2017-12-30T23:26:56.727Z,6.17
2017-12-30T23:29:24.303Z,5.96
2017-12-30T23:31:51.844Z,6.08
2017-12-30T23:34:19.451Z,5.86
2017-12-30T23:36:47.005Z,5.90
2017-12-30T23:39:14.556Z,5.77
2017-12-30T23:41:42.168Z,5.72
2017-12-30T23:44:09.717Z,5.54
2017-12-30T23:46:37.312Z,5.59
2017-12-30T23:49:04.901Z,5.72
2017-12-30T23:51:32.516Z,5.72
2017-12-30T23:54:00.068Z,5.56
2017-12-30T23:56:27.621Z,5.57
2017-12-30T23:58:57.540Z,5.64
